Time;durP1;ratioP1;P1;durP2;ratioP2;P2;SDS_P1;SDS_P2;PMS_P1;PMS_P2;Temp;Humidity;BMP_temperature;BMP_pressure;BME280_temperature;BME280_humidity;BME280_pressure;Samples;Min_cycle;Max_cycle;Signal;HPM_P1;HPM_P2
2023/06/25 00:01:22;;;;;;;7.85;7.05;;;;;;;19.69;66.89;98787.19;5091717;28;20032;-44
2023/06/25 00:03:48;;;;;;;8.20;7.38;;;;;;;19.64;67.26;98781.81;5091763;28;20486;-44
2023/06/25 00:06:14;;;;;;;8.32;7.03;;;;;;;19.59;67.65;98785.25;5090377;28;20024;-44
2023/06/25 00:08:39;;;;;;;9.85;7.43;;;;;;;19.53;67.85;98787.09;5090369;28;20024;-44
2023/06/25 00:11:05;;;;;;;7.43;6.53;;;;;;;19.49;67.92;98779.88;5090258;28;20097;-44
2023/06/25 00:13:31;;;;;;;9.23;6.60;;;;;;;19.49;68.32;98782.53;5091624;28;20386;-44
2023/06/25 00:15:56;;;;;;;10.85;6.53;;;;;;;19.43;68.35;98788.88;5091658;28;20048;-44
2023/06/25 00:18:25;;;;;;;12.32;6.72;;;;;;;19.51;68.10;98777.75;5090285;28;20031;-44
2023/06/25 00:20:50;;;;;;;9.88;6.03;;;;;;;19.62;67.62;98782.09;5091487;28;20028;-44
2023/06/25 00:23:16;;;;;;;9.98;6.72;;;;;;;19.60;67.31;98781.56;5090189;28;20032;-44
2023/06/25 00:25:41;;;;;;;11.23;6.43;;;;;;;19.63;67.30;98785.56;5091528;28;20020;-44
2023/06/25 00:28:10;;;;;;;19.52;9.75;;;;;;;19.71;67.28;98772.56;5090180;28;20035;-44
2023/06/25 00:30:36;;;;;;;14.70;6.78;;;;;;;19.70;67.08;98778.94;5089891;28;20054;-44
2023/06/25 00:33:02;;;;;;;9.27;6.55;;;;;;;19.72;66.92;98784.84;5090172;28;20017;-44
2023/06/25 00:35:43;;;;;;;12.45;6.63;;;;;;;19.79;66.67;98773.16;5090170;28;20025;-44
2023/06/25 00:38:10;;;;;;;13.00;7.35;;;;;;;19.81;66.74;98782.50;5090338;28;20024;-44
2023/06/25 00:40:35;;;;;;;10.70;6.53;;;;;;;19.97;66.20;98779.91;5090063;28;20031;-44
2023/06/25 00:43:03;;;;;;;10.52;8.23;;;;;;;19.94;66.02;98783.88;5091354;28;20016;-44
2023/06/25 00:45:29;;;;;;;11.32;6.75;;;;;;;19.78;66.33;98779.53;5091354;28;20031;-44
2023/06/25 00:47:55;;;;;;;7.10;6.38;;;;;;;19.58;67.05;98778.34;5091380;28;20024;-44
2023/06/25 00:50:24;;;;;;;10.48;7.93;;;;;;;19.40;67.53;98773.41;5093089;28;20034;-44
2023/06/25 00:52:51;;;;;;;10.57;5.90;;;;;;;19.35;67.89;98771.53;5093771;28;20054;-44
2023/06/25 00:55:18;;;;;;;8.90;6.07;;;;;;;19.19;68.16;98772.47;5094795;28;20073;-44
2023/06/25 00:57:44;;;;;;;12.35;6.88;;;;;;;19.06;68.88;98771.84;5095156;28;20024;-44
2023/06/25 01:00:14;;;;;;;7.28;6.53;;;;;;;19.02;69.31;98776.06;5093454;28;20398;-44
2023/06/25 01:03:00;;;;;;;8.75;6.53;;;;;;;18.99;69.83;98781.88;5093551;28;20085;-44
2023/06/25 01:05:52;;;;;;;6.85;6.07;;;;;;;18.92;69.68;98776.78;5095061;28;20028;-44
2023/06/25 01:08:21;;;;;;;8.45;6.45;;;;;;;18.88;69.68;98773.03;5076572;28;20051;-44
2023/06/25 01:10:47;;;;;;;9.70;6.40;;;;;;;18.86;69.85;98777.00;5093244;28;20028;-44
2023/06/25 01:13:13;;;;;;;11.52;6.45;;;;;;;18.83;69.99;98778.28;5093262;28;20031;-44
2023/06/25 01:15:39;;;;;;;8.27;6.35;;;;;;;18.80;70.05;98778.78;5093230;28;20128;-44
2023/06/25 01:18:05;;;;;;;9.27;5.88;;;;;;;18.74;70.20;98774.44;5093179;28;20028;-44
2023/06/25 01:20:31;;;;;;;6.85;6.25;;;;;;;18.72;70.09;98779.22;5094381;28;20110;-44
2023/06/25 01:22:57;;;;;;;6.43;5.82;;;;;;;18.62;70.56;98784.44;5093033;28;20112;-44
2023/06/25 01:25:26;;;;;;;10.45;6.18;;;;;;;18.48;70.84;98776.84;5094362;28;20027;-44
2023/06/25 01:27:52;;;;;;;11.95;6.95;;;;;;;18.42;71.30;98774.41;5093079;28;20028;-44
2023/06/25 01:30:20;;;;;;;7.93;6.53;;;;;;;18.34;71.72;98771.13;5092647;28;20075;-44
2023/06/25 01:32:46;;;;;;;11.30;6.30;;;;;;;18.29;72.18;98775.56;5094164;28;20028;-44
2023/06/25 01:35:14;;;;;;;7.78;5.70;;;;;;;18.28;72.45;98777.41;5076052;28;20032;-44
2023/06/25 01:37:39;;;;;;;7.38;6.18;;;;;;;18.30;72.22;98774.53;5094124;28;20038;-44
2023/06/25 01:40:07;;;;;;;7.50;6.38;;;;;;;18.37;71.84;98767.16;5092700;28;20565;-44
2023/06/25 01:42:34;;;;;;;8.05;5.95;;;;;;;18.52;71.98;98769.19;5094006;28;20066;-44
2023/06/25 01:44:59;;;;;;;7.32;6.55;;;;;;;18.54;71.58;98761.75;5094013;28;20020;-45
2023/06/25 01:47:25;;;;;;;17.30;9.30;;;;;;;18.58;72.60;98764.72;5093898;28;20017;-44
2023/06/25 01:49:51;;;;;;;9.10;6.82;;;;;;;18.40;74.13;98757.91;5092614;28;20490;-44
2023/06/25 01:52:16;;;;;;;14.88;8.07;;;;;;;18.10;75.88;98767.91;5093980;28;20512;-44
2023/06/25 01:54:42;;;;;;;9.95;7.70;;;;;;;17.94;77.78;98763.47;5093823;28;20511;-44
2023/06/25 01:57:08;;;;;;;18.17;16.50;;;;;;;17.75;78.34;98769.03;5092383;28;20056;-44
2023/06/25 01:59:35;;;;;;;21.30;19.50;;;;;;;17.72;79.15;98763.41;5093764;28;20416;-44
2023/06/25 02:02:01;;;;;;;17.38;13.35;;;;;;;17.73;79.44;98765.81;5093166;28;20035;-44
2023/06/25 02:04:27;;;;;;;10.68;7.53;;;;;;;17.77;79.31;98768.81;5092266;28;20020;-44
2023/06/25 02:06:53;;;;;;;9.88;7.40;;;;;;;17.80;78.68;98770.16;5093784;28;20027;-44
2023/06/25 02:09:19;;;;;;;8.20;6.25;;;;;;;17.87;79.44;98763.66;5092265;28;20020;-44
2023/06/25 02:11:46;;;;;;;8.80;5.93;;;;;;;17.97;79.58;98770.94;5092057;28;20028;-44
2023/06/25 02:14:12;;;;;;;9.48;5.53;;;;;;;17.96;79.22;98764.81;5093390;28;20020;-44
2023/06/25 02:16:38;;;;;;;7.28;5.78;;;;;;;18.01;78.70;98764.09;5093422;28;20107;-44
2023/06/25 02:19:04;;;;;;;10.88;6.40;;;;;;;17.96;78.55;98772.00;5093325;28;20104;-44
2023/06/25 02:21:29;;;;;;;8.57;6.32;;;;;;;17.84;78.56;98768.66;5091982;28;20032;-44
2023/06/25 02:23:55;;;;;;;7.95;6.18;;;;;;;17.74;79.29;98775.38;5093346;28;20058;-44
2023/06/25 02:26:21;;;;;;;6.85;6.15;;;;;;;17.76;79.78;98769.84;5091877;28;20088;-44
2023/06/25 02:28:46;;;;;;;9.35;6.30;;;;;;;17.89;79.74;98766.88;5091639;28;20044;-44
2023/06/25 02:31:12;;;;;;;8.35;6.45;;;;;;;18.03;78.69;98767.31;5091731;28;20028;-44
2023/06/25 02:33:38;;;;;;;8.23;6.28;;;;;;;18.14;78.03;98761.06;5093064;28;20032;-44
2023/06/25 02:36:04;;;;;;;10.55;6.10;;;;;;;18.11;76.99;98758.91;5092959;28;20549;-44
2023/06/25 02:38:29;;;;;;;8.23;6.22;;;;;;;18.04;76.43;98760.94;5091647;28;20085;-44
2023/06/25 02:40:55;;;;;;;9.85;5.95;;;;;;;17.98;75.82;98761.13;5092914;28;20130;-44
2023/06/25 02:43:20;;;;;;;10.73;6.78;;;;;;;17.93;76.25;98759.22;5091582;28;20107;-44
2023/06/25 02:45:46;;;;;;;7.03;6.32;;;;;;;17.97;76.23;98757.69;5091498;28;20024;-44
2023/06/25 02:48:12;;;;;;;10.25;6.38;;;;;;;18.01;75.69;98755.31;5074613;28;20047;-44
2023/06/25 02:50:37;;;;;;;8.65;6.57;;;;;;;17.88;75.68;98753.81;5092596;28;20016;-44
2023/06/25 02:53:03;;;;;;;7.20;6.50;;;;;;;17.77;75.97;98756.31;5091329;28;20051;-44
2023/06/25 02:55:29;;;;;;;8.93;6.65;;;;;;;17.68;76.03;98765.75;5092651;28;20115;-44
2023/06/25 02:57:56;;;;;;;8.98;6.28;;;;;;;17.76;76.60;98769.84;5091272;28;20509;-44
2023/06/25 03:00:21;;;;;;;8.77;7.05;;;;;;;17.85;75.69;98763.09;5091292;28;20035;-44
2023/06/25 03:02:47;;;;;;;7.70;6.15;;;;;;;17.82;75.49;98770.72;5091187;28;20032;-44
2023/06/25 03:05:12;;;;;;;8.98;7.32;;;;;;;17.81;75.51;98771.75;5091116;28;20034;-44
2023/06/25 03:07:52;;;;;;;8.82;6.25;;;;;;;17.83;75.36;98780.25;5091095;28;20034;-44
2023/06/25 03:10:18;;;;;;;8.88;6.63;;;;;;;17.91;75.23;98777.25;5091031;28;20031;-44
2023/06/25 03:12:43;;;;;;;13.23;8.43;;;;;;;18.00;75.22;98777.63;5091726;28;20096;-44
2023/06/25 03:15:09;;;;;;;7.60;6.20;;;;;;;18.13;74.91;98775.41;5091018;28;20111;-44
2023/06/25 03:17:35;;;;;;;11.05;6.55;;;;;;;18.13;74.29;98780.72;5092298;28;20126;-44
2023/06/25 03:20:00;;;;;;;9.63;7.00;;;;;;;17.99;74.06;98776.00;5092235;28;20016;-44
2023/06/25 03:22:26;;;;;;;10.18;6.85;;;;;;;17.82;74.19;98771.50;5090872;28;20031;-44
2023/06/25 03:24:52;;;;;;;9.63;6.85;;;;;;;17.69;74.90;98774.53;5090841;28;20086;-44
2023/06/25 03:27:17;;;;;;;11.20;7.30;;;;;;;17.74;75.30;98775.38;5092193;28;20478;-44
2023/06/25 03:29:43;;;;;;;10.40;6.50;;;;;;;17.91;75.38;98778.03;5091882;28;20044;-47
2023/06/25 03:32:10;;;;;;;10.10;7.70;;;;;;;18.16;74.99;98768.78;5091827;28;20044;-46
2023/06/25 03:34:35;;;;;;;11.75;6.75;;;;;;;18.24;73.47;98770.19;5090770;28;20016;-46
2023/06/25 03:37:01;;;;;;;12.15;6.28;;;;;;;18.07;73.02;98773.72;5090644;28;20405;-46
2023/06/25 03:39:27;;;;;;;7.68;6.10;;;;;;;17.87;73.05;98774.28;5091916;28;20119;-46
2023/06/25 03:41:52;;;;;;;6.72;6.03;;;;;;;17.70;73.48;98771.63;5091895;28;20073;-46
2023/06/25 03:44:18;;;;;;;10.88;6.78;;;;;;;17.55;74.29;98768.75;5090584;28;20085;-46
2023/06/25 03:46:44;;;;;;;8.40;7.05;;;;;;;17.42;74.95;98777.03;5091813;28;20175;-47
2023/06/25 03:49:09;;;;;;;7.78;6.60;;;;;;;17.35;75.62;98779.88;5090636;28;20052;-46
2023/06/25 03:51:35;;;;;;;10.10;7.40;;;;;;;17.24;75.71;98776.25;5091719;28;20059;-46
2023/06/25 03:54:01;;;;;;;9.50;6.80;;;;;;;17.21;76.15;98768.78;5090510;28;20074;-46
2023/06/25 03:56:26;;;;;;;7.35;6.65;;;;;;;17.16;76.29;98769.50;5090481;28;20052;-47
2023/06/25 03:58:52;;;;;;;13.38;7.30;;;;;;;17.15;76.45;98765.25;5091791;28;20074;-46
2023/06/25 04:01:18;;;;;;;11.00;8.55;;;;;;;17.16;76.72;98774.00;5090448;28;20024;-46
2023/06/25 04:03:43;;;;;;;7.57;6.70;;;;;;;17.24;76.56;98768.28;5090448;28;20016;-46
2023/06/25 04:06:09;;;;;;;7.85;7.05;;;;;;;17.17;76.07;98773.75;5091725;28;20562;-46
2023/06/25 04:08:34;;;;;;;10.85;6.82;;;;;;;17.13;76.30;98775.28;5091639;28;20115;-46
2023/06/25 04:11:00;;;;;;;10.57;7.07;;;;;;;17.08;76.36;98767.25;5091585;28;20028;-46
2023/06/25 04:13:26;;;;;;;7.20;6.50;;;;;;;17.10;76.44;98769.66;5090413;28;20048;-46
2023/06/25 04:15:51;;;;;;;10.82;7.43;;;;;;;17.09;76.47;98770.72;5090326;28;20463;-46
2023/06/25 04:18:17;;;;;;;9.95;7.32;;;;;;;17.15;76.44;98769.75;5091668;28;20057;-46
2023/06/25 04:20:42;;;;;;;8.35;7.55;;;;;;;17.15;76.51;98770.53;5090249;28;20032;-46
2023/06/25 04:23:08;;;;;;;8.43;6.25;;;;;;;17.18;76.36;98763.94;5091979;28;20028;-47
2023/06/25 04:25:34;;;;;;;11.38;7.55;;;;;;;17.51;76.08;98760.47;5094237;28;20485;-46
2023/06/25 04:27:59;;;;;;;10.98;6.50;;;;;;;18.38;73.17;98755.47;5095450;28;20488;-46
2023/06/25 04:30:25;;;;;;;9.13;6.75;;;;;;;19.20;69.68;98755.47;5076971;28;20076;-46
2023/06/25 04:32:51;;;;;;;9.77;6.53;;;;;;;19.69;67.32;98761.34;5095383;28;20028;-46
2023/06/25 04:35:17;;;;;;;10.10;6.75;;;;;;;20.13;65.46;98753.06;5095336;28;20022;-46
2023/06/25 04:37:43;;;;;;;10.30;6.20;;;;;;;20.58;64.28;98763.31;5095322;28;20035;-47
2023/06/25 04:40:09;;;;;;;15.90;6.97;;;;;;;20.78;63.31;98763.38;5093965;28;20020;-47
2023/06/25 04:42:34;;;;;;;6.50;5.80;;;;;;;20.69;63.29;98764.97;5093930;28;20035;-47
2023/06/25 04:45:00;;;;;;;10.45;6.70;;;;;;;20.73;63.39;98761.50;5093915;28;20493;-46
2023/06/25 04:47:26;;;;;;;8.60;5.65;;;;;;;20.98;62.50;98759.13;5093832;28;20397;-47
2023/06/25 04:49:51;;;;;;;12.75;6.80;;;;;;;21.44;60.63;98759.91;5095320;28;20020;-47
2023/06/25 04:52:20;;;;;;;9.85;7.15;;;;;;;22.13;58.76;98758.38;5093589;28;20571;-47
2023/06/25 04:54:46;;;;;;;10.48;6.05;;;;;;;22.74;55.73;98761.81;5093632;28;20080;-47
2023/06/25 04:57:12;;;;;;;12.85;6.25;;;;;;;23.16;54.40;98763.13;5093566;28;20115;-47
2023/06/25 04:59:37;;;;;;;10.88;6.38;;;;;;;23.40;53.07;98757.00;5093551;28;20607;-47
2023/06/25 05:02:04;;;;;;;14.38;6.03;;;;;;;23.70;51.99;98762.06;5095064;28;20103;-44
2023/06/25 05:04:30;;;;;;;16.33;7.43;;;;;;;24.03;50.69;98764.13;5095098;28;20371;-44
2023/06/25 05:06:56;;;;;;;7.50;5.38;;;;;;;24.12;50.01;98759.72;5093433;28;20024;-44
2023/06/25 05:09:21;;;;;;;9.38;5.63;;;;;;;24.22;49.82;98758.78;5093382;28;20021;-44
2023/06/25 05:11:47;;;;;;;14.50;5.75;;;;;;;24.49;49.29;98761.66;5093256;28;20399;-44
2023/06/25 05:14:13;;;;;;;15.32;6.10;;;;;;;24.98;48.24;98753.44;5093249;28;20485;-44
2023/06/25 05:16:38;;;;;;;10.60;5.90;;;;;;;25.44;46.84;98744.63;5093189;28;20035;-44
2023/06/25 05:19:04;;;;;;;19.05;7.78;;;;;;;26.13;45.98;98746.53;5093274;28;20134;-44
2023/06/25 05:21:29;;;;;;;9.73;6.75;;;;;;;26.83;44.11;98750.63;5094304;28;20573;-44
2023/06/25 05:24:00;;;;;;;9.95;5.70;;;;;;;27.55;42.45;98741.53;5093113;28;20464;-45
2023/06/25 05:26:27;;;;;;;9.25;6.00;;;;;;;27.74;41.50;98748.59;5094304;28;20107;-45
2023/06/25 05:28:52;;;;;;;12.00;6.22;;;;;;;28.41;39.63;98745.59;5075834;28;20131;-45
2023/06/25 05:31:18;;;;;;;6.22;5.43;;;;;;;28.59;39.36;98751.00;5094230;28;20505;-45
2023/06/25 05:33:44;;;;;;;10.55;4.90;;;;;;;28.68;39.18;98752.59;5092874;28;20024;-45
2023/06/25 05:36:12;;;;;;;6.45;5.03;;;;;;;28.81;38.69;98758.13;5092145;28;20065;-45
2023/06/25 05:38:38;;;;;;;10.60;5.63;;;;;;;28.53;39.08;98752.28;5092840;28;20016;-45
2023/06/25 05:41:03;;;;;;;9.45;6.07;;;;;;;28.66;38.98;98754.03;5094062;28;20027;-45
2023/06/25 05:43:29;;;;;;;7.72;5.32;;;;;;;28.73;38.31;98754.31;5092767;28;20028;-45
2023/06/25 05:45:54;;;;;;;8.60;5.22;;;;;;;28.94;38.67;98759.88;5092657;28;20027;-45
2023/06/25 05:48:20;;;;;;;12.63;5.82;;;;;;;29.99;36.75;98767.69;5092632;28;20020;-45
2023/06/25 05:50:46;;;;;;;15.90;7.28;;;;;;;31.05;35.71;98759.25;5093824;28;20024;-45
2023/06/25 05:53:11;;;;;;;13.95;6.72;;;;;;;31.72;34.00;98769.19;5092540;28;20032;-45
2023/06/25 05:55:37;;;;;;;10.85;6.57;;;;;;;32.22;33.27;98762.63;5092418;28;20035;-45
2023/06/25 05:58:03;;;;;;;23.25;7.10;;;;;;;32.79;32.34;98761.56;5092477;28;20020;-45
2023/06/25 06:00:28;;;;;;;6.80;5.75;;;;;;;33.41;31.18;98767.47;5092326;28;20055;-45
2023/06/25 06:02:54;;;;;;;13.95;5.97;;;;;;;34.28;30.30;98761.34;5092372;28;20154;-45
2023/06/25 06:05:20;;;;;;;7.15;5.32;;;;;;;35.26;28.40;98754.69;5093598;28;20056;-45
2023/06/25 06:07:45;;;;;;;6.72;4.50;;;;;;;36.11;27.63;98756.41;5092250;28;20032;-46
2023/06/25 06:10:14;;;;;;;9.70;4.82;;;;;;;36.70;26.49;98754.81;5093430;28;20024;-46
2023/06/25 06:12:40;;;;;;;13.18;5.10;;;;;;;37.16;25.78;98765.47;5093775;28;20024;-46
2023/06/25 06:15:06;;;;;;;21.08;7.22;;;;;;;37.69;25.17;98764.41;5092144;28;20035;-45
2023/06/25 06:17:32;;;;;;;7.40;5.35;;;;;;;37.89;24.81;98766.84;5093357;28;20087;-46
2023/06/25 06:19:58;;;;;;;7.70;5.05;;;;;;;37.88;24.26;98774.28;5092072;28;20028;-46
2023/06/25 06:22:23;;;;;;;6.20;4.80;;;;;;;38.17;23.93;98771.75;5093274;28;20528;-46
2023/06/25 06:24:49;;;;;;;12.38;5.20;;;;;;;38.59;23.40;98775.88;5093229;28;20077;-46
2023/06/25 06:27:15;;;;;;;15.75;6.25;;;;;;;39.00;23.52;98770.16;5091898;28;20111;-46
2023/06/25 06:29:40;;;;;;;19.58;7.00;;;;;;;38.86;23.31;98776.34;5091551;28;20075;-46
2023/06/25 06:32:07;;;;;;;9.93;5.47;;;;;;;39.12;23.47;98780.75;5091687;28;20027;-46
2023/06/25 06:34:32;;;;;;;7.32;4.82;;;;;;;39.15;23.39;98779.16;5091753;28;20012;-46
2023/06/25 06:36:58;;;;;;;8.57;5.10;;;;;;;39.41;22.82;98780.75;5091620;28;20390;-46
2023/06/25 06:39:23;;;;;;;8.35;5.13;;;;;;;39.96;22.46;98776.03;5091677;28;20055;-46
2023/06/25 06:41:49;;;;;;;6.53;4.82;;;;;;;40.00;22.49;98774.84;5092881;28;20523;-46
2023/06/25 06:44:16;;;;;;;12.65;4.72;;;;;;;40.12;22.21;98770.91;5091646;28;20024;-46
2023/06/25 06:46:43;;;;;;;6.72;4.70;;;;;;;40.02;22.46;98774.47;5092145;28;20020;-46
2023/06/25 06:49:10;;;;;;;8.80;4.50;;;;;;;40.27;22.02;98777.91;5092727;28;20086;-46
2023/06/25 06:51:37;;;;;;;17.30;5.78;;;;;;;40.60;23.11;98775.84;5092639;28;20035;-46
2023/06/25 06:54:03;;;;;;;15.82;6.85;;;;;;;40.99;22.24;98763.88;5091373;28;20020;-46
2023/06/25 06:56:29;;;;;;;6.75;4.88;;;;;;;41.13;21.94;98769.25;5091446;28;20086;-48
2023/06/25 06:58:55;;;;;;;28.45;7.65;;;;;;;41.14;22.05;98764.53;5092658;28;20021;-48
2023/06/25 07:01:21;;;;;;;11.15;5.50;;;;;;;41.26;21.52;98766.03;5092558;28;20028;-48
2023/06/25 07:03:46;;;;;;;14.13;5.28;;;;;;;41.35;21.35;98765.56;5091199;28;20047;-48
2023/06/25 07:06:12;;;;;;;34.95;20.50;;;;;;;41.40;20.95;98774.19;5092517;28;20505;-48
2023/06/25 07:08:38;;;;;;;40.03;30.45;;;;;;;41.32;21.20;98770.72;5092444;28;20023;-48
2023/06/25 07:11:03;;;;;;;8.27;4.53;;;;;;;41.19;20.80;98763.34;5092336;28;20024;-48
2023/06/25 07:13:29;;;;;;;14.90;8.13;;;;;;;40.71;21.52;98764.78;5091144;28;20039;-48
2023/06/25 07:15:55;;;;;;;7.85;4.75;;;;;;;40.65;21.16;98772.69;5092375;28;20103;-48
2023/06/25 07:18:21;;;;;;;16.25;8.48;;;;;;;40.62;21.41;98769.94;5091003;28;20809;-48
2023/06/25 07:20:46;;;;;;;5.60;4.30;;;;;;;40.16;21.59;98773.63;5090923;28;20020;-48
2023/06/25 07:23:12;;;;;;;11.80;7.38;;;;;;;39.80;22.14;98766.22;5092196;28;20020;-48
2023/06/25 07:25:38;;;;;;;6.50;4.25;;;;;;;40.14;21.74;98768.53;5090875;28;20055;-48
2023/06/25 07:28:04;;;;;;;6.50;3.72;;;;;;;40.18;21.38;98771.28;5092089;28;20497;-48
2023/06/25 07:30:29;;;;;;;4.30;3.53;;;;;;;39.81;21.64;98769.78;5090647;28;20433;-48
2023/06/25 07:32:57;;;;;;;9.02;3.97;;;;;;;39.46;22.33;98774.91;5092114;28;20035;-48
2023/06/25 07:35:23;;;;;;;8.02;4.00;;;;;;;39.46;22.61;98769.41;5090684;28;20490;-48
2023/06/25 07:37:48;;;;;;;4.90;3.50;;;;;;;39.46;22.44;98768.63;5092025;28;20069;-48
2023/06/25 07:40:14;;;;;;;6.18;3.88;;;;;;;39.59;22.04;98771.75;5090617;28;20039;-48
2023/06/25 07:42:40;;;;;;;5.53;4.28;;;;;;;40.03;21.82;98767.78;5091921;28;20401;-48
2023/06/25 07:45:06;;;;;;;8.02;4.03;;;;;;;40.43;20.94;98768.44;5091940;28;20038;-48
2023/06/25 07:47:32;;;;;;;8.30;5.55;;;;;;;40.48;21.03;98768.81;5091911;28;20106;-48
2023/06/25 07:49:58;;;;;;;6.47;4.10;;;;;;;40.99;20.34;98766.63;5091902;28;20557;-48
2023/06/25 07:52:23;;;;;;;6.28;3.85;;;;;;;41.67;20.10;98768.84;5091996;28;20389;-48
2023/06/25 07:54:49;;;;;;;7.35;4.72;;;;;;;42.30;19.62;98774.13;5091848;28;20032;-48
2023/06/25 07:57:15;;;;;;;5.05;3.88;;;;;;;42.79;18.60;98771.13;5091794;28;20024;-49
2023/06/25 07:59:41;;;;;;;8.15;4.60;;;;;;;43.23;18.42;98763.78;5094640;28;20020;-48
2023/06/25 08:02:06;;;;;;;5.88;3.80;;;;;;;43.68;18.04;98766.22;5096029;28;20024;-48
2023/06/25 08:04:32;;;;;;;12.80;3.92;;;;;;;43.47;17.93;98767.34;5095931;28;20028;-48
2023/06/25 08:06:58;;;;;;;5.93;3.58;;;;;;;43.21;18.31;98755.13;5094549;28;20039;-49
2023/06/25 08:09:24;;;;;;;6.10;3.78;;;;;;;43.33;18.40;98758.50;5094569;28;20035;-48
2023/06/25 08:11:49;;;;;;;4.50;3.58;;;;;;;43.76;18.10;98764.09;5095660;28;20031;-49
2023/06/25 08:14:15;;;;;;;4.20;3.80;;;;;;;43.68;17.95;98757.16;5095779;28;20444;-48
2023/06/25 08:16:41;;;;;;;4.22;3.60;;;;;;;43.01;18.70;98757.81;5095743;28;20539;-48
2023/06/25 08:19:06;;;;;;;10.93;4.57;;;;;;;43.18;18.32;98755.97;5095684;28;20022;-48
2023/06/25 08:21:32;;;;;;;10.48;5.07;;;;;;;43.44;18.13;98757.13;5095616;28;20027;-49
2023/06/25 08:23:58;;;;;;;5.65;3.85;;;;;;;44.02;17.53;98750.56;5095651;28;20035;-48
2023/06/25 08:26:23;;;;;;;5.20;4.70;;;;;;;44.33;17.78;98751.13;5095512;28;20103;-48
2023/06/25 08:28:49;;;;;;;14.75;5.13;;;;;;;44.65;17.47;98744.97;5095308;28;20063;-48
2023/06/25 08:31:15;;;;;;;12.63;5.32;;;;;;;44.89;17.28;98742.03;5095355;28;20031;-49
2023/06/25 08:33:40;;;;;;;6.03;3.80;;;;;;;45.09;16.97;98749.50;5095378;28;20016;-49
2023/06/25 08:36:06;;;;;;;6.45;4.00;;;;;;;44.89;16.90;98747.59;5095388;28;20032;-49
2023/06/25 08:38:32;;;;;;;7.03;3.97;;;;;;;44.94;16.78;98746.31;5093979;28;20053;-48
2023/06/25 08:40:58;;;;;;;5.70;3.58;;;;;;;44.57;17.57;98753.84;5095216;28;20028;-49
2023/06/25 08:43:24;;;;;;;11.82;4.90;;;;;;;44.19;17.79;98746.72;5095234;28;20035;-49
2023/06/25 08:45:50;;;;;;;6.05;4.20;;;;;;;44.67;17.72;98748.06;5095109;28;20072;-48
2023/06/25 08:48:18;;;;;;;5.68;4.55;;;;;;;45.38;16.82;98746.81;5095102;28;20024;-49
2023/06/25 08:50:51;;;;;;;11.43;5.18;;;;;;;45.60;16.68;98750.59;5093654;28;20028;-49
2023/06/25 08:53:16;;;;;;;6.13;4.20;;;;;;;45.28;16.94;98750.63;5093755;28;20035;-49
2023/06/25 08:55:44;;;;;;;6.18;3.80;;;;;;;44.72;17.24;98746.78;5095001;28;20375;-49
2023/06/25 08:58:10;;;;;;;5.15;4.35;;;;;;;43.93;18.38;98756.69;5094871;28;20024;-48
2023/06/25 09:00:35;;;;;;;9.65;4.55;;;;;;;44.30;18.11;98757.53;5094888;28;20103;-48
2023/06/25 09:03:01;;;;;;;4.10;3.70;;;;;;;45.08;17.58;98753.47;5095127;28;20020;-49
2023/06/25 09:05:27;;;;;;;8.95;4.20;;;;;;;45.68;16.92;98740.09;5095014;28;20028;-49
2023/06/25 09:07:54;;;;;;;11.25;4.68;;;;;;;45.95;16.79;98747.31;5095000;28;20416;-49
2023/06/25 09:10:21;;;;;;;5.50;3.80;;;;;;;46.10;16.33;98742.16;5093433;28;20088;-49
2023/06/25 09:12:48;;;;;;;6.25;3.97;;;;;;;45.80;16.59;98749.69;5093357;28;20016;-49
2023/06/25 09:15:19;;;;;;;10.20;4.32;;;;;;;45.77;16.76;98743.03;5093239;28;20028;-49
2023/06/25 09:17:45;;;;;;;10.93;4.97;;;;;;;45.78;16.55;98746.56;5094563;28;20103;-48
2023/06/25 09:20:11;;;;;;;3.88;3.58;;;;;;;45.91;16.24;98743.88;5094486;28;20128;-49
2023/06/25 09:22:50;;;;;;;9.60;3.88;;;;;;;45.74;16.59;98743.91;5094453;28;20047;-49
2023/06/25 09:25:18;;;;;;;4.35;3.80;;;;;;;45.63;16.48;98737.84;5094625;28;20504;-49
2023/06/25 09:27:44;;;;;;;4.03;3.63;;;;;;;45.63;16.46;98744.16;5094370;28;20020;-49
2023/06/25 09:30:11;;;;;;;6.82;3.45;;;;;;;45.20;16.94;98742.50;5093956;28;20043;-49
2023/06/25 09:32:50;;;;;;;6.60;4.03;;;;;;;45.11;16.71;98739.53;5092908;28;20024;-48
2023/06/25 09:35:24;;;;;;;8.55;3.58;;;;;;;45.00;16.99;98750.88;5094282;28;20032;-49
2023/06/25 09:37:51;;;;;;;6.30;3.92;;;;;;;45.21;16.86;98746.03;5094102;28;20024;-48
2023/06/25 09:40:18;;;;;;;8.20;4.25;;;;;;;45.50;17.02;98737.00;5092815;28;20039;-49
2023/06/25 09:42:44;;;;;;;6.63;4.43;;;;;;;45.82;16.89;98744.47;5075942;28;20056;-48
2023/06/25 09:45:17;;;;;;;7.40;4.00;;;;;;;45.82;16.79;98736.97;5094256;28;20027;-48
2023/06/25 09:47:46;;;;;;;3.83;3.53;;;;;;;45.90;16.82;98736.75;5092761;28;20085;-49
2023/06/25 09:50:23;;;;;;;6.50;3.90;;;;;;;45.99;16.50;98731.34;5092614;28;20046;-48
2023/06/25 09:52:55;;;;;;;6.38;3.78;;;;;;;46.04;16.37;98730.81;5093945;28;20028;-49
2023/06/25 09:55:21;;;;;;;17.98;5.18;;;;;;;46.26;16.11;98730.19;5094113;28;20097;-48
2023/06/25 09:57:48;;;;;;;7.65;5.05;;;;;;;45.98;16.56;98724.22;5093819;28;20020;-48
2023/06/25 10:00:15;;;;;;;7.43;4.15;;;;;;;45.92;16.36;98729.53;5093725;28;20390;-48
2023/06/25 10:02:41;;;;;;;9.88;4.65;;;;;;;45.70;16.81;98734.94;5075520;28;20024;-49
2023/06/25 10:05:07;;;;;;;5.88;4.20;;;;;;;45.81;16.48;98731.84;5092540;28;20043;-49
2023/06/25 10:07:34;;;;;;;5.65;4.18;;;;;;;45.73;16.61;98730.50;5093645;28;20028;-48
2023/06/25 10:09:59;;;;;;;12.63;5.15;;;;;;;45.79;16.74;98726.72;5075439;28;20044;-49
2023/06/25 10:12:25;;;;;;;12.13;4.00;;;;;;;45.92;16.47;98728.75;5075285;28;20016;-49
2023/06/25 10:14:53;;;;;;;10.15;4.45;;;;;;;45.86;16.52;98725.75;5093461;28;20441;-49
2023/06/25 10:17:22;;;;;;;5.80;3.70;;;;;;;44.72;17.24;98729.38;5093424;28;20024;-49
2023/06/25 10:20:00;;;;;;;3.90;3.60;;;;;;;43.79;17.87;98734.81;5093402;28;20379;-48
2023/06/25 10:22:27;;;;;;;8.77;4.32;;;;;;;43.60;18.05;98728.81;5093039;28;20025;-49
2023/06/25 10:24:55;;;;;;;4.18;3.30;;;;;;;44.05;17.84;98722.84;5092037;28;20036;-49
2023/06/25 10:27:20;;;;;;;6.45;4.15;;;;;;;44.60;17.61;98717.78;5091844;28;20016;-49
2023/06/25 10:29:47;;;;;;;4.80;3.80;;;;;;;45.17;16.95;98720.41;5091620;28;20051;-49
2023/06/25 10:32:13;;;;;;;8.07;4.13;;;;;;;45.44;16.64;98718.16;5092999;28;20027;-48
2023/06/25 10:34:40;;;;;;;8.75;4.28;;;;;;;45.51;16.91;98710.84;5091742;28;20080;-49
2023/06/25 10:37:06;;;;;;;6.35;4.22;;;;;;;45.67;16.71;98713.59;5091666;28;20024;-49
2023/06/25 10:39:41;;;;;;;10.50;4.72;;;;;;;45.98;16.39;98710.34;5091709;28;20028;-49
2023/06/25 10:42:08;;;;;;;9.95;4.75;;;;;;;45.67;16.64;98713.59;5091697;28;20074;-49
2023/06/25 10:44:34;;;;;;;8.38;4.50;;;;;;;45.49;16.91;98707.75;5092906;28;20024;-49
2023/06/25 10:47:08;;;;;;;5.45;3.88;;;;;;;45.61;16.55;98705.00;5091521;28;20024;-49
2023/06/25 10:49:35;;;;;;;9.48;3.42;;;;;;;45.61;16.54;98705.00;5092796;28;20031;-49
2023/06/25 10:52:05;;;;;;;4.10;3.35;;;;;;;45.67;16.45;98701.75;5092633;28;20021;-49
2023/06/25 10:54:35;;;;;;;6.88;4.65;;;;;;;45.72;16.34;98698.41;5092929;28;20398;-49
2023/06/25 10:57:11;;;;;;;4.82;3.25;;;;;;;45.48;15.90;98697.84;5092662;28;20020;-48
2023/06/25 10:59:38;;;;;;;15.18;4.95;;;;;;;45.45;16.08;98697.50;5092693;28;20028;-48
2023/06/25 11:02:22;;;;;;;6.63;3.35;;;;;;;45.29;15.63;98691.25;5092555;28;20024;-49
2023/06/25 11:04:56;;;;;;;6.28;3.90;;;;;;;44.69;16.28;98691.47;5092495;28;20085;-49
2023/06/25 11:07:23;;;;;;;9.30;3.88;;;;;;;43.70;16.83;98695.91;5092512;28;20016;-49
2023/06/25 11:09:55;;;;;;;4.10;3.70;;;;;;;42.35;17.80;98694.84;5092723;28;20375;-49
2023/06/25 11:12:21;;;;;;;5.00;3.75;;;;;;;41.76;18.59;98696.72;5090948;28;20110;-48
2023/06/25 11:14:47;;;;;;;18.83;5.38;;;;;;;41.08;19.75;98687.06;5091064;28;20119;-48
2023/06/25 11:17:17;;;;;;;6.97;4.43;;;;;;;41.51;19.70;98677.66;5092294;28;20500;-48
2023/06/25 11:19:43;;;;;;;8.23;4.55;;;;;;;41.26;19.65;98677.91;5090992;28;20054;-48
2023/06/25 11:22:10;;;;;;;3.72;3.42;;;;;;;41.31;19.13;98685.72;5090868;28;20055;-48
2023/06/25 11:24:37;;;;;;;4.57;3.95;;;;;;;41.39;19.39;98678.94;5090944;28;20133;-48
2023/06/25 11:27:03;;;;;;;7.03;3.50;;;;;;;41.75;18.93;98683.34;5092104;28;20024;-48